sensor_id;sensor_type;location;lat;lon;timestamp;pressure;altitude;pressure_sealevel;temperature;humidity
26657;BME280;14279;50.010;8.260;2023-10-13T00:01:30;100411.78;;;17.66;100.00
26657;BME280;14279;50.010;8.260;2023-10-13T00:03:55;100411.56;;;17.69;100.00
26657;BME280;14279;50.010;8.260;2023-10-13T00:06:20;100411.41;;;17.70;100.00
26657;BME280;14279;50.010;8.260;2023-10-13T00:08:45;100406.16;;;17.70;100.00
26657;BME280;14279;50.010;8.260;2023-10-13T00:11:12;100410.47;;;17.71;100.00
26657;BME280;14279;50.010;8.260;2023-10-13T00:13:38;100398.97;;;17.72;100.00
26657;BME280;14279;50.010;8.260;2023-10-13T00:16:16;100406.88;;;17.72;100.00
26657;BME280;14279;50.010;8.260;2023-10-13T00:18:43;100392.31;;;17.68;100.00
26657;BME280;14279;50.010;8.260;2023-10-13T00:21:09;100394.94;;;17.68;100.00
26657;BME280;14279;50.010;8.260;2023-10-13T00:23:42;100397.16;;;17.62;100.00
26657;BME280;14279;50.010;8.260;2023-10-13T00:26:25;100395.63;;;17.59;100.00
26657;BME280;14279;50.010;8.260;2023-10-13T00:29:00;100387.00;;;17.57;100.00
26657;BME280;14279;50.010;8.260;2023-10-13T00:31:35;100380.19;;;17.66;100.00
26657;BME280;14279;50.010;8.260;2023-10-13T00:34:02;100384.00;;;17.62;100.00
26657;BME280;14279;50.010;8.260;2023-10-13T00:36:40;100387.13;;;17.55;100.00
26657;BME280;14279;50.010;8.260;2023-10-13T00:39:35;100392.47;;;17.42;100.00
26657;BME280;14279;50.010;8.260;2023-10-13T00:42:02;100392.94;;;17.48;100.00
26657;BME280;14279;50.010;8.260;2023-10-13T00:44:33;100387.66;;;17.48;100.00
26657;BME280;14279;50.010;8.260;2023-10-13T00:47:09;100389.34;;;17.49;100.00
26657;BME280;14279;50.010;8.260;2023-10-13T00:49:45;100383.03;;;17.51;100.00
26657;BME280;14279;50.010;8.260;2023-10-13T00:52:13;100380.28;;;17.53;100.00
26657;BME280;14279;50.010;8.260;2023-10-13T00:54:41;100379.78;;;17.48;100.00
26657;BME280;14279;50.010;8.260;2023-10-13T00:57:13;100374.03;;;17.42;100.00
26657;BME280;14279;50.010;8.260;2023-10-13T01:00:00;100377.13;;;17.36;100.00
26657;BME280;14279;50.010;8.260;2023-10-13T01:02:37;100368.88;;;17.41;100.00
26657;BME280;14279;50.010;8.260;2023-10-13T01:05:06;100367.94;;;17.42;100.00
26657;BME280;14279;50.010;8.260;2023-10-13T01:07:38;100376.56;;;17.44;100.00
26657;BME280;14279;50.010;8.260;2023-10-13T01:10:04;100371.16;;;17.46;100.00
26657;BME280;14279;50.010;8.260;2023-10-13T01:12:30;100367.94;;;17.42;100.00
26657;BME280;14279;50.010;8.260;2023-10-13T01:14:56;100378.81;;;17.49;100.00
26657;BME280;14279;50.010;8.260;2023-10-13T01:17:22;100375.47;;;17.47;100.00
26657;BME280;14279;50.010;8.260;2023-10-13T01:19:49;100380.50;;;17.50;100.00
26657;BME280;14279;50.010;8.260;2023-10-13T01:22:26;100379.31;;;17.54;100.00
26657;BME280;14279;50.010;8.260;2023-10-13T01:24:56;100376.31;;;17.47;100.00
26657;BME280;14279;50.010;8.260;2023-10-13T01:27:41;100374.19;;;17.52;100.00
26657;BME280;14279;50.010;8.260;2023-10-13T01:30:07;100361.63;;;17.56;100.00
26657;BME280;14279;50.010;8.260;2023-10-13T01:32:35;100366.06;;;17.55;100.00
26657;BME280;14279;50.010;8.260;2023-10-13T01:35:07;100361.63;;;17.56;100.00
26657;BME280;14279;50.010;8.260;2023-10-13T01:37:32;100370.25;;;17.58;100.00
26657;BME280;14279;50.010;8.260;2023-10-13T01:39:58;100365.34;;;17.65;100.00
26657;BME280;14279;50.010;8.260;2023-10-13T01:42:23;100358.53;;;17.62;100.00
26657;BME280;14279;50.010;8.260;2023-10-13T01:44:50;100362.47;;;17.56;100.00
26657;BME280;14279;50.010;8.260;2023-10-13T01:47:15;100361.28;;;17.61;100.00
26657;BME280;14279;50.010;8.260;2023-10-13T01:49:41;100358.41;;;17.64;100.00
26657;BME280;14279;50.010;8.260;2023-10-13T01:52:09;100348.47;;;17.56;100.00
26657;BME280;14279;50.010;8.260;2023-10-13T01:54:37;100348.00;;;17.62;100.00
26657;BME280;14279;50.010;8.260;2023-10-13T01:57:08;100337.34;;;17.52;100.00
26657;BME280;14279;50.010;8.260;2023-10-13T01:59:38;100328.38;;;17.55;100.00
26657;BME280;14279;50.010;8.260;2023-10-13T02:02:09;100330.19;;;17.54;100.00
26657;BME280;14279;50.010;8.260;2023-10-13T02:04:37;100327.19;;;17.59;100.00
26657;BME280;14279;50.010;8.260;2023-10-13T02:07:07;100318.34;;;17.60;100.00
26657;BME280;14279;50.010;8.260;2023-10-13T02:09:33;100315.47;;;17.63;100.00
26657;BME280;14279;50.010;8.260;2023-10-13T02:12:02;100316.66;;;17.59;100.00
26657;BME280;14279;50.010;8.260;2023-10-13T02:14:27;100312.47;;;17.56;100.00
26657;BME280;14279;50.010;8.260;2023-10-13T02:16:52;100311.63;;;17.56;100.00
26657;BME280;14279;50.010;8.260;2023-10-13T02:19:37;100323.47;;;17.50;100.00
26657;BME280;14279;50.010;8.260;2023-10-13T02:22:05;100317.84;;;17.55;100.00
26657;BME280;14279;50.010;8.260;2023-10-13T02:24:33;100314.38;;;17.54;100.00
26657;BME280;14279;50.010;8.260;2023-10-13T02:26:58;100317.25;;;17.51;100.00
26657;BME280;14279;50.010;8.260;2023-10-13T02:29:32;100306.91;;;17.37;100.00
26657;BME280;14279;50.010;8.260;2023-10-13T02:32:04;100302.75;;;17.34;100.00
26657;BME280;14279;50.010;8.260;2023-10-13T02:34:30;100287.53;;;17.38;100.00
26657;BME280;14279;50.010;8.260;2023-10-13T02:36:56;100284.91;;;17.38;100.00
26657;BME280;14279;50.010;8.260;2023-10-13T02:39:22;100279.31;;;17.42;100.00
26657;BME280;14279;50.010;8.260;2023-10-13T02:41:51;100269.97;;;17.38;100.00
26657;BME280;14279;50.010;8.260;2023-10-13T02:44:17;100264.81;;;17.37;100.00
26657;BME280;14279;50.010;8.260;2023-10-13T02:47:02;100268.41;;;17.36;100.00
26657;BME280;14279;50.010;8.260;2023-10-13T02:49:31;100271.03;;;17.36;100.00
26657;BME280;14279;50.010;8.260;2023-10-13T02:51:59;100269.50;;;17.45;100.00
26657;BME280;14279;50.010;8.260;2023-10-13T02:54:29;100272.25;;;17.43;100.00
26657;BME280;14279;50.010;8.260;2023-10-13T02:57:04;100273.66;;;17.36;100.00
26657;BME280;14279;50.010;8.260;2023-10-13T02:59:31;100269.25;;;17.36;100.00
26657;BME280;14279;50.010;8.260;2023-10-13T03:02:03;100268.53;;;17.34;100.00
26657;BME280;14279;50.010;8.260;2023-10-13T03:04:47;100255.97;;;17.38;100.00
26657;BME280;14279;50.010;8.260;2023-10-13T03:07:13;100258.72;;;17.36;100.00
26657;BME280;14279;50.010;8.260;2023-10-13T03:09:43;100263.63;;;17.30;100.00
26657;BME280;14279;50.010;8.260;2023-10-13T03:12:16;100251.19;;;17.32;100.00
26657;BME280;14279;50.010;8.260;2023-10-13T03:14:42;100271.03;;;17.24;100.00
26657;BME280;14279;50.010;8.260;2023-10-13T03:17:13;100274.47;;;17.25;100.00
26657;BME280;14279;50.010;8.260;2023-10-13T03:19:58;100278.31;;;17.21;100.00
26657;BME280;14279;50.010;8.260;2023-10-13T03:22:24;100271.25;;;17.21;100.00
26657;BME280;14279;50.010;8.260;2023-10-13T03:24:56;100260.16;;;17.29;100.00
26657;BME280;14279;50.010;8.260;2023-10-13T03:27:25;100250.25;;;17.33;100.00
26657;BME280;14279;50.010;8.260;2023-10-13T03:30:05;100247.13;;;17.27;100.00
26657;BME280;14279;50.010;8.260;2023-10-13T03:32:36;100243.78;;;17.25;100.00
26657;BME280;14279;50.010;8.260;2023-10-13T03:35:07;100244.13;;;17.21;100.00
26657;BME280;14279;50.010;8.260;2023-10-13T03:37:38;100244.97;;;17.33;100.00
26657;BME280;14279;50.010;8.260;2023-10-13T03:40:08;100239.22;;;17.27;100.00
26657;BME280;14279;50.010;8.260;2023-10-13T03:42:50;100231.09;;;17.31;100.00
26657;BME280;14279;50.010;8.260;2023-10-13T03:45:39;100229.75;;;17.25;100.00
26657;BME280;14279;50.010;8.260;2023-10-13T03:48:09;100225.72;;;17.21;100.00
26657;BME280;14279;50.010;8.260;2023-10-13T03:50:38;100226.66;;;17.20;100.00
26657;BME280;14279;50.010;8.260;2023-10-13T03:53:12;100233.47;;;17.22;100.00
26657;BME280;14279;50.010;8.260;2023-10-13T03:55:38;100231.56;;;17.24;100.00
26657;BME280;14279;50.010;8.260;2023-10-13T03:58:03;100238.38;;;17.27;100.00
26657;BME280;14279;50.010;8.260;2023-10-13T04:00:30;100244.84;;;17.34;100.00
26657;BME280;14279;50.010;8.260;2023-10-13T04:02:56;100249.25;;;17.34;100.00
26657;BME280;14279;50.010;8.260;2023-10-13T04:05:29;100236.94;;;17.23;100.00
26657;BME280;14279;50.010;8.260;2023-10-13T04:08:06;100230.97;;;17.21;100.00
26657;BME280;14279;50.010;8.260;2023-10-13T04:10:51;100222.38;;;17.19;100.00
26657;BME280;14279;50.010;8.260;2023-10-13T04:13:17;100229.41;;;17.18;100.00
26657;BME280;14279;50.010;8.260;2023-10-13T04:16:01;100220.09;;;17.25;100.00
26657;BME280;14279;50.010;8.260;2023-10-13T04:18:39;100211.47;;;17.23;100.00
26657;BME280;14279;50.010;8.260;2023-10-13T04:21:21;100206.44;;;17.20;100.00
26657;BME280;14279;50.010;8.260;2023-10-13T04:24:06;100214.69;;;17.27;100.00
26657;BME280;14279;50.010;8.260;2023-10-13T04:26:51;100208.03;;;17.34;100.00
26657;BME280;14279;50.010;8.260;2023-10-13T04:29:36;100204.66;;;17.32;100.00
26657;BME280;14279;50.010;8.260;2023-10-13T04:32:17;100208.72;;;17.25;100.00
26657;BME280;14279;50.010;8.260;2023-10-13T04:34:59;100205.03;;;17.27;100.00
26657;BME280;14279;50.010;8.260;2023-10-13T04:37:37;100200.25;;;17.33;100.00
26657;BME280;14279;50.010;8.260;2023-10-13T04:40:18;100197.13;;;17.27;100.00
26657;BME280;14279;50.010;8.260;2023-10-13T04:42:44;100191.38;;;17.22;100.00
26657;BME280;14279;50.010;8.260;2023-10-13T04:45:20;100179.06;;;17.23;100.00
26657;BME280;14279;50.010;8.260;2023-10-13T04:48:01;100177.50;;;17.20;100.00
26657;BME280;14279;50.010;8.260;2023-10-13T04:51:00;100189.25;;;17.27;100.00
26657;BME280;14279;50.010;8.260;2023-10-13T04:53:46;100187.69;;;17.25;100.00
26657;BME280;14279;50.010;8.260;2023-10-13T04:56:35;100176.91;;;17.28;100.00
26657;BME280;14279;50.010;8.260;2023-10-13T04:59:23;100164.00;;;17.25;100.00
26657;BME280;14279;50.010;8.260;2023-10-13T05:02:02;100173.56;;;17.26;100.00
26657;BME280;14279;50.010;8.260;2023-10-13T05:04:45;100173.94;;;17.33;100.00
26657;BME280;14279;50.010;8.260;2023-10-13T05:07:29;100169.97;;;17.27;100.00
26657;BME280;14279;50.010;8.260;2023-10-13T05:10:13;100168.06;;;17.29;100.00
26657;BME280;14279;50.010;8.260;2023-10-13T05:12:57;100172.03;;;17.23;100.00
26657;BME280;14279;50.010;8.260;2023-10-13T05:15:47;100168.91;;;17.18;100.00
26657;BME280;14279;50.010;8.260;2023-10-13T05:18:31;100167.47;;;17.14;100.00
26657;BME280;14279;50.010;8.260;2023-10-13T05:24:36;100162.31;;;17.01;100.00
26657;BME280;14279;50.010;8.260;2023-10-13T05:27:25;100157.78;;;17.03;100.00
26657;BME280;14279;50.010;8.260;2023-10-13T05:30:09;100169.28;;;17.13;100.00
26657;BME280;14279;50.010;8.260;2023-10-13T05:32:53;100169.38;;;17.12;100.00
26657;BME280;14279;50.010;8.260;2023-10-13T05:35:37;100166.63;;;17.13;100.00
26657;BME280;14279;50.010;8.260;2023-10-13T05:38:21;100161.97;;;17.17;100.00
26657;BME280;14279;50.010;8.260;2023-10-13T05:41:05;100154.19;;;17.27;100.00
26657;BME280;14279;50.010;8.260;2023-10-13T05:43:49;100162.94;;;17.27;100.00
26657;BME280;14279;50.010;8.260;2023-10-13T05:46:33;100161.03;;;17.30;100.00
26657;BME280;14279;50.010;8.260;2023-10-13T05:49:51;100162.72;;;17.31;100.00
26657;BME280;14279;50.010;8.260;2023-10-13T05:52:39;100159.00;;;17.33;100.00
26657;BME280;14279;50.010;8.260;2023-10-13T05:55:20;100169.28;;;17.36;100.00
26657;BME280;14279;50.010;8.260;2023-10-13T06:01:31;100165.31;;;17.42;100.00
26657;BME280;14279;50.010;8.260;2023-10-13T06:21:04;100166.38;;;17.51;100.00
26657;BME280;14279;50.010;8.260;2023-10-13T06:23:49;100159.94;;;17.55;100.00
26657;BME280;14279;50.010;8.260;2023-10-13T06:26:33;100157.53;;;17.63;100.00
26657;BME280;14279;50.010;8.260;2023-10-13T06:29:17;100166.03;;;17.67;100.00
26657;BME280;14279;50.010;8.260;2023-10-13T06:31:45;100168.78;;;17.65;99.45
26657;BME280;14279;50.010;8.260;2023-10-13T06:34:11;100172.38;;;17.64;99.05
26657;BME280;14279;50.010;8.260;2023-10-13T06:36:40;100163.63;;;17.64;99.08
26657;BME280;14279;50.010;8.260;2023-10-13T06:39:06;100168.69;;;17.55;98.96
26657;BME280;14279;50.010;8.260;2023-10-13T06:41:59;100171.88;;;17.70;98.23
26657;BME280;14279;50.010;8.260;2023-10-13T06:44:25;100179.53;;;17.85;95.97
26657;BME280;14279;50.010;8.260;2023-10-13T06:46:51;100177.97;;;18.05;95.21
26657;BME280;14279;50.010;8.260;2023-10-13T06:49:17;100184.38;;;18.12;93.70
26657;BME280;14279;50.010;8.260;2023-10-13T06:51:43;100182.47;;;18.14;93.08
26657;BME280;14279;50.010;8.260;2023-10-13T06:54:11;100180.25;;;18.31;92.58
26657;BME280;14279;50.010;8.260;2023-10-13T06:56:45;100179.50;;;18.40;91.83
26657;BME280;14279;50.010;8.260;2023-10-13T06:59:11;100176.88;;;18.40;91.94
26657;BME280;14279;50.010;8.260;2023-10-13T07:01:39;100175.28;;;18.49;91.93
26657;BME280;14279;50.010;8.260;2023-10-13T07:04:08;100174.81;;;18.44;92.61
26657;BME280;14279;50.010;8.260;2023-10-13T07:06:40;100175.22;;;18.60;91.93
26657;BME280;14279;50.010;8.260;2023-10-13T07:09:09;100178.69;;;18.61;92.00
26657;BME280;14279;50.010;8.260;2023-10-13T07:11:49;100173.94;;;18.76;91.34
26657;BME280;14279;50.010;8.260;2023-10-13T07:14:17;100176.81;;;18.73;90.85
26657;BME280;14279;50.010;8.260;2023-10-13T07:16:44;100174.13;;;18.84;90.09
26657;BME280;14279;50.010;8.260;2023-10-13T07:19:23;100179.34;;;18.74;90.18
26657;BME280;14279;50.010;8.260;2023-10-13T07:21:50;100176.91;;;18.61;90.60
26657;BME280;14279;50.010;8.260;2023-10-13T07:24:23;100178.94;;;18.58;90.81
26657;BME280;14279;50.010;8.260;2023-10-13T07:26:49;100183.63;;;18.54;90.84
26657;BME280;14279;50.010;8.260;2023-10-13T07:29:23;100181.91;;;18.86;88.96
26657;BME280;14279;50.010;8.260;2023-10-13T07:31:50;100194.09;;;18.98;87.70
26657;BME280;14279;50.010;8.260;2023-10-13T07:34:15;100186.78;;;18.90;88.01
26657;BME280;14279;50.010;8.260;2023-10-13T07:36:54;100180.63;;;19.22;85.91
26657;BME280;14279;50.010;8.260;2023-10-13T07:39:30;100180.44;;;19.45;84.93
26657;BME280;14279;50.010;8.260;2023-10-13T07:41:59;100180.78;;;19.62;83.84
26657;BME280;14279;50.010;8.260;2023-10-13T07:44:40;100170.28;;;19.81;82.94
26657;BME280;14279;50.010;8.260;2023-10-13T07:47:11;100171.03;;;19.93;82.51
26657;BME280;14279;50.010;8.260;2023-10-13T07:49:37;100170.00;;;19.85;82.69
26657;BME280;14279;50.010;8.260;2023-10-13T07:52:09;100172.53;;;19.96;83.51
26657;BME280;14279;50.010;8.260;2023-10-13T07:54:49;100169.38;;;20.02;83.19
26657;BME280;14279;50.010;8.260;2023-10-13T07:57:17;100163.66;;;19.97;83.45
26657;BME280;14279;50.010;8.260;2023-10-13T07:59:43;100165.47;;;20.06;82.30
26657;BME280;14279;50.010;8.260;2023-10-13T08:02:15;100169.66;;;20.19;82.00
26657;BME280;14279;50.010;8.260;2023-10-13T08:05:00;100154.50;;;20.31;81.05
26657;BME280;14279;50.010;8.260;2023-10-13T08:07:25;100165.31;;;20.47;80.09
26657;BME280;14279;50.010;8.260;2023-10-13T08:09:54;100167.97;;;20.47;79.13
26657;BME280;14279;50.010;8.260;2023-10-13T08:12:19;100164.22;;;20.50;79.50
26657;BME280;14279;50.010;8.260;2023-10-13T08:14:47;100162.00;;;20.55;78.46
26657;BME280;14279;50.010;8.260;2023-10-13T08:17:12;100161.03;;;20.46;78.46
26657;BME280;14279;50.010;8.260;2023-10-13T08:19:39;100164.50;;;20.37;78.54
26657;BME280;14279;50.010;8.260;2023-10-13T08:22:11;100157.13;;;20.31;78.79
26657;BME280;14279;50.010;8.260;2023-10-13T08:24:43;100154.47;;;20.01;81.31
26657;BME280;14279;50.010;8.260;2023-10-13T08:27:10;100147.06;;;19.85;82.83
26657;BME280;14279;50.010;8.260;2023-10-13T08:33:16;100137.03;;;19.79;84.01
26657;BME280;14279;50.010;8.260;2023-10-13T08:35:48;100130.00;;;20.09;82.74
26657;BME280;14279;50.010;8.260;2023-10-13T08:38:21;100119.16;;;20.12;82.38
26657;BME280;14279;50.010;8.260;2023-10-13T08:40:57;100115.53;;;20.23;81.84
26657;BME280;14279;50.010;8.260;2023-10-13T08:43:43;100123.03;;;20.37;80.80
26657;BME280;14279;50.010;8.260;2023-10-13T08:46:10;100126.53;;;20.48;79.79
26657;BME280;14279;50.010;8.260;2023-10-13T08:48:52;100134.72;;;20.45;79.66
26657;BME280;14279;50.010;8.260;2023-10-13T08:51:18;100134.44;;;20.48;79.90
26657;BME280;14279;50.010;8.260;2023-10-13T08:54:05;100122.34;;;20.55;79.53
26657;BME280;14279;50.010;8.260;2023-10-13T08:56:43;100100.91;;;20.38;80.09
26657;BME280;14279;50.010;8.260;2023-10-13T08:59:12;100094.94;;;20.46;79.86
26657;BME280;14279;50.010;8.260;2023-10-13T09:01:47;100099.50;;;20.64;79.61
26657;BME280;14279;50.010;8.260;2023-10-13T09:04:16;100091.00;;;20.80;78.81
26657;BME280;14279;50.010;8.260;2023-10-13T09:09:25;100072.00;;;20.27;80.64
26657;BME280;14279;50.010;8.260;2023-10-13T09:11:59;100075.38;;;20.19;81.00
26657;BME280;14279;50.010;8.260;2023-10-13T09:14:35;100079.81;;;20.19;82.12
26657;BME280;14279;50.010;8.260;2023-10-13T09:17:06;100075.88;;;20.33;81.73
26657;BME280;14279;50.010;8.260;2023-10-13T09:19:52;100071.44;;;20.43;81.12
26657;BME280;14279;50.010;8.260;2023-10-13T09:22:25;100070.13;;;20.67;80.77
26657;BME280;14279;50.010;8.260;2023-10-13T09:24:55;100065.09;;;20.83;80.08
26657;BME280;14279;50.010;8.260;2023-10-13T09:27:25;100072.03;;;20.84;78.90
26657;BME280;14279;50.010;8.260;2023-10-13T09:30:05;100074.00;;;20.72;78.99
26657;BME280;14279;50.010;8.260;2023-10-13T09:32:33;100076.47;;;20.74;78.83
26657;BME280;14279;50.010;8.260;2023-10-13T09:35:13;100082.22;;;20.69;78.52
26657;BME280;14279;50.010;8.260;2023-10-13T09:37:41;100077.63;;;20.81;77.94
26657;BME280;14279;50.010;8.260;2023-10-13T09:40:07;100077.47;;;20.73;77.54
26657;BME280;14279;50.010;8.260;2023-10-13T09:42:50;100063.25;;;20.74;77.08
26657;BME280;14279;50.010;8.260;2023-10-13T09:45:15;100062.78;;;20.98;76.18
26657;BME280;14279;50.010;8.260;2023-10-13T09:47:46;100064.25;;;21.11;76.15
26657;BME280;14279;50.010;8.260;2023-10-13T09:50:19;100064.66;;;21.16;76.04
26657;BME280;14279;50.010;8.260;2023-10-13T09:52:50;100063.16;;;21.31;74.95
26657;BME280;14279;50.010;8.260;2023-10-13T09:55:30;100057.06;;;21.31;74.92
26657;BME280;14279;50.010;8.260;2023-10-13T09:58:04;100065.09;;;21.39;74.21
26657;BME280;14279;50.010;8.260;2023-10-13T10:00:40;100066.41;;;21.53;73.83
26657;BME280;14279;50.010;8.260;2023-10-13T10:03:07;100061.72;;;21.83;72.35
26657;BME280;14279;50.010;8.260;2023-10-13T10:05:55;100057.19;;;21.94;71.86
26657;BME280;14279;50.010;8.260;2023-10-13T10:08:29;100046.50;;;22.21;71.18
26657;BME280;14279;50.010;8.260;2023-10-13T10:13:47;100048.03;;;22.50;70.11
26657;BME280;14279;50.010;8.260;2023-10-13T10:16:29;100047.47;;;22.20;68.46
26657;BME280;14279;50.010;8.260;2023-10-13T10:19:01;100046.72;;;22.10;66.57
26657;BME280;14279;50.010;8.260;2023-10-13T10:21:33;100048.47;;;22.19;66.80
26657;BME280;14279;50.010;8.260;2023-10-13T10:24:00;100041.59;;;22.09;65.06
26657;BME280;14279;50.010;8.260;2023-10-13T10:26:32;100046.09;;;22.34;63.99
26657;BME280;14279;50.010;8.260;2023-10-13T10:28:58;100041.84;;;22.68;63.54
26657;BME280;14279;50.010;8.260;2023-10-13T10:31:31;100042.28;;;22.63;62.25
26657;BME280;14279;50.010;8.260;2023-10-13T10:34:11;100036.59;;;22.85;61.97
26657;BME280;14279;50.010;8.260;2023-10-13T10:36:38;100034.63;;;22.87;61.95
26657;BME280;14279;50.010;8.260;2023-10-13T10:39:07;100030.75;;;22.73;63.19
26657;BME280;14279;50.010;8.260;2023-10-13T10:41:34;100022.63;;;22.74;62.69
26657;BME280;14279;50.010;8.260;2023-10-13T10:44:13;100024.28;;;22.75;62.77
26657;BME280;14279;50.010;8.260;2023-10-13T10:46:43;100003.25;;;22.82;62.80
26657;BME280;14279;50.010;8.260;2023-10-13T10:49:21;100002.28;;;22.91;62.25
26657;BME280;14279;50.010;8.260;2023-10-13T10:51:58;99994.13;;;22.85;62.92
26657;BME280;14279;50.010;8.260;2023-10-13T10:54:26;100001.88;;;22.70;64.27
26657;BME280;14279;50.010;8.260;2023-10-13T10:56:56;99999.66;;;23.00;63.44
26657;BME280;14279;50.010;8.260;2023-10-13T10:59:24;100001.69;;;23.06;63.06
26657;BME280;14279;50.010;8.260;2023-10-13T11:01:50;99985.34;;;23.52;61.66
26657;BME280;14279;50.010;8.260;2023-10-13T11:04:18;99973.09;;;23.67;60.73
26657;BME280;14279;50.010;8.260;2023-10-13T11:06:47;99968.94;;;24.06;60.39
26657;BME280;14279;50.010;8.260;2023-10-13T11:09:13;99973.09;;;24.00;60.31
26657;BME280;14279;50.010;8.260;2023-10-13T11:11:50;99968.94;;;24.06;60.04
26657;BME280;14279;50.010;8.260;2023-10-13T11:14:25;99960.31;;;24.52;59.01
26657;BME280;14279;50.010;8.260;2023-10-13T11:16:52;99952.97;;;24.14;58.74
26657;BME280;14279;50.010;8.260;2023-10-13T11:19:41;99943.97;;;24.24;58.76
26657;BME280;14279;50.010;8.260;2023-10-13T11:25:35;99932.94;;;24.35;58.63
26657;BME280;14279;50.010;8.260;2023-10-13T11:31:21;99920.56;;;24.19;56.56
26657;BME280;14279;50.010;8.260;2023-10-13T11:37:15;99918.50;;;24.38;55.66
26657;BME280;14279;50.010;8.260;2023-10-13T11:40:29;99911.63;;;24.04;55.22
26657;BME280;14279;50.010;8.260;2023-10-13T11:43:57;99919.31;;;24.38;54.48
26657;BME280;14279;50.010;8.260;2023-10-13T11:50:23;99910.53;;;24.69;53.97
26657;BME280;14279;50.010;8.260;2023-10-13T11:52:57;99914.13;;;24.45;55.09
26657;BME280;14279;50.010;8.260;2023-10-13T11:55:22;99904.44;;;24.60;54.69
26657;BME280;14279;50.010;8.260;2023-10-13T11:57:49;99895.88;;;24.42;54.90
26657;BME280;14279;50.010;8.260;2023-10-13T12:00:14;99900.59;;;24.23;55.71
26657;BME280;14279;50.010;8.260;2023-10-13T12:03:11;99891.59;;;24.24;56.15
26657;BME280;14279;50.010;8.260;2023-10-13T12:05:55;99891.31;;;24.19;55.99
26657;BME280;14279;50.010;8.260;2023-10-13T12:08:39;99890.09;;;24.30;56.27
26657;BME280;14279;50.010;8.260;2023-10-13T12:11:14;99882.63;;;24.25;56.06
26657;BME280;14279;50.010;8.260;2023-10-13T12:13:57;99884.47;;;24.25;55.75
26657;BME280;14279;50.010;8.260;2023-10-13T12:16:44;99883.69;;;24.16;55.44
26657;BME280;14279;50.010;8.260;2023-10-13T12:19:16;99889.16;;;24.14;56.18
26657;BME280;14279;50.010;8.260;2023-10-13T12:21:43;99889.47;;;24.11;55.31
26657;BME280;14279;50.010;8.260;2023-10-13T12:24:09;99881.00;;;24.16;55.40
26657;BME280;14279;50.010;8.260;2023-10-13T12:26:51;99882.47;;;24.27;55.25
26657;BME280;14279;50.010;8.260;2023-10-13T12:33:07;99871.63;;;24.37;55.14
26657;BME280;14279;50.010;8.260;2023-10-13T12:36:32;99868.09;;;24.44;54.54
26657;BME280;14279;50.010;8.260;2023-10-13T12:39:35;99861.75;;;24.45;54.55
26657;BME280;14279;50.010;8.260;2023-10-13T12:42:19;99842.69;;;24.73;54.35
26657;BME280;14279;50.010;8.260;2023-10-13T12:45:06;99845.13;;;24.83;54.13
26657;BME280;14279;50.010;8.260;2023-10-13T12:47:50;99843.16;;;24.69;53.37
26657;BME280;14279;50.010;8.260;2023-10-13T12:50:34;99844.97;;;25.00;53.36
26657;BME280;14279;50.010;8.260;2023-10-13T12:53:09;99840.31;;;25.25;52.14
26657;BME280;14279;50.010;8.260;2023-10-13T12:55:42;99832.88;;;25.35;51.77
26657;BME280;14279;50.010;8.260;2023-10-13T12:58:07;99823.63;;;25.46;50.68
26657;BME280;14279;50.010;8.260;2023-10-13T13:00:33;99831.63;;;25.08;49.45
26657;BME280;14279;50.010;8.260;2023-10-13T13:02:58;99825.00;;;25.04;49.22
26657;BME280;14279;50.010;8.260;2023-10-13T13:05:24;99822.69;;;25.39;49.38
26657;BME280;14279;50.010;8.260;2023-10-13T13:07:53;99818.84;;;25.42;48.45
26657;BME280;14279;50.010;8.260;2023-10-13T13:10:19;99813.22;;;25.36;49.04
26657;BME280;14279;50.010;8.260;2023-10-13T13:12:44;99818.38;;;25.38;49.09
26657;BME280;14279;50.010;8.260;2023-10-13T13:15:10;99809.25;;;25.56;49.07
26657;BME280;14279;50.010;8.260;2023-10-13T13:17:37;99808.69;;;25.60;49.88
26657;BME280;14279;50.010;8.260;2023-10-13T13:20:07;99815.38;;;25.71;49.68
26657;BME280;14279;50.010;8.260;2023-10-13T13:22:54;99809.41;;;25.69;49.75
26657;BME280;14279;50.010;8.260;2023-10-13T13:25:19;99798.38;;;26.02;48.45
26657;BME280;14279;50.010;8.260;2023-10-13T13:27:51;99792.69;;;25.75;49.10
26657;BME280;14279;50.010;8.260;2023-10-13T13:30:16;99788.72;;;25.56;49.49
26657;BME280;14279;50.010;8.260;2023-10-13T13:32:45;99781.44;;;25.35;49.08
26657;BME280;14279;50.010;8.260;2023-10-13T13:35:11;99777.84;;;25.28;50.17
26657;BME280;14279;50.010;8.260;2023-10-13T13:37:39;99782.81;;;25.31;50.31
26657;BME280;14279;50.010;8.260;2023-10-13T13:40:05;99779.03;;;25.25;50.47
26657;BME280;14279;50.010;8.260;2023-10-13T13:42:41;99778.66;;;25.13;50.74
26657;BME280;14279;50.010;8.260;2023-10-13T13:45:26;99775.91;;;25.21;50.63
26657;BME280;14279;50.010;8.260;2023-10-13T13:47:54;99766.75;;;25.24;50.79
26657;BME280;14279;50.010;8.260;2023-10-13T13:50:25;99768.94;;;25.35;50.56
26657;BME280;14279;50.010;8.260;2023-10-13T13:52:58;99759.78;;;25.38;50.47
26657;BME280;14279;50.010;8.260;2023-10-13T13:55:25;99745.81;;;25.36;50.87
26657;BME280;14279;50.010;8.260;2023-10-13T13:57:56;99736.41;;;25.40;50.69
26657;BME280;14279;50.010;8.260;2023-10-13T14:00:21;99739.19;;;25.32;50.50
26657;BME280;14279;50.010;8.260;2023-10-13T14:03:05;99736.22;;;25.27;51.08
26657;BME280;14279;50.010;8.260;2023-10-13T14:05:40;99730.25;;;25.25;51.52
26657;BME280;14279;50.010;8.260;2023-10-13T14:08:05;99721.34;;;25.17;51.79
26657;BME280;14279;50.010;8.260;2023-10-13T14:13:38;99712.97;;;25.05;52.59
26657;BME280;14279;50.010;8.260;2023-10-13T14:16:21;99723.25;;;25.09;51.62